Stone Creek, OH (43840)

11:34 AM EDT on September 30, 2016 (GMT -0400)
Bakersville, OH | | Change Station

Elev 945 ft 40.37 °N, 81.66 °W | Updated 4 minutes ago

Mostly Cloudy
Mostly Cloudy
62.8 °F
Feels Like 62.8 °F
N
6.0
Wind Variable Wind from SE
Gusts 9.2 mph

Today
High -- | Low -- °F
--% Chance of Precip.
Yesterday
High -- | Low -- °F
Precip. -- in
Pressure 30.10 in
Visibility 10.0 miles
Clouds Mostly Cloudy 1500 ft
Dew Point 56 °F
Humidity 80%
Rainfall 0.30 in
Snow Depth Not available.
7:22 AM 7:09 PM
Waning Crescent, 0% visible
METAR KPHD 301453Z AUTO 11008KT 10SM BKN015 17/14 A3010 RMK AO2 RAB1356E31 SLP192 P0000 60000 T01670139 53001
Pressure 30.10 in
Visibility 10.0 miles
Clouds Mostly Cloudy 1500 ft
Dew Point 56 °F
Humidity 80%
Rainfall 0.30 in
Snow Depth Not available.
7:22 AM 7:09 PM
Waning Crescent, 0% visible
METAR KPHD 301453Z AUTO 11008KT 10SM BKN015 17/14 A3010 RMK AO2 RAB1356E31 SLP192 P0000 60000 T01670139 53001

10-Day Weather Forecast

Almanac

Astronomy

Sep. 30, 2016 Rise Set
Actual Time
Civil Twilight
Nautical Twilight
Astronomical Twilight
Moon
Length of Visible Light
Length of Day
Tomorrow will be .
, % of the Moon is Illuminated

Today's Extremes

State Highs State Lows

Community

WunderPhotos

Upload Photos

1,942,738 photos uploaded!

WunderBlog® & News

Nearby

Air Quality

  Air Quality AQ Index Pollutant
Not available.

Snow Depth

Station Depth Elevation

Earthquake Activity

City Distance Mag. Time & Date
Minimum magnitude displayed is 2.5.

Coastal Water Temperatures

Place Temperature

Stations

Nearby Weather Stations

Station Location Temp. Windchill Dew Point Humidity Wind Precip. Elev Updated Type
                   

Watches & Warnings

There are currently no watches in effect.